Time;durP1;ratioP1;P1;durP2;ratioP2;P2;SDS_P1;SDS_P2;PMS_P1;PMS_P2;Temp;Humidity;BMP_temperature;BMP_pressure;BME280_temperature;BME280_humidity;BME280_pressure;Samples;Min_cycle;Max_cycle;Signal;HPM_P1;HPM_P2
2021/09/29 00:01:08;;;;;;;;;;;23.20;62.50;;;;;;5075784;28;20000;-57
2021/09/29 00:03:36;;;;;;;;;;;23.10;62.50;;;;;;5075709;28;19933;-59
2021/09/29 00:06:04;;;;;;;;;;;23.10;62.50;;;;;;5073539;28;20011;-59
2021/09/29 00:08:31;;;;;;;;;;;23.10;62.50;;;;;;5061387;28;19924;-58
2021/09/29 00:10:58;;;;;;;;;;;23.10;62.50;;;;;;5058031;28;19925;-58
2021/09/29 00:13:26;;;;;;;;;;;23.10;62.50;;;;;;5074361;28;19931;-57
2021/09/29 00:15:53;;;;;;;;;;;23.10;62.50;;;;;;5075286;28;19924;-57
2021/09/29 00:18:21;;;;;;;;;;;23.10;62.40;;;;;;5061501;28;20003;-59
2021/09/29 00:20:48;;;;;;;;;;;23.10;62.50;;;;;;5072004;28;19931;-59
2021/09/29 00:23:15;;;;;;;;;;;23.10;62.40;;;;;;5066422;28;19924;-59
2021/09/29 00:25:42;;;;;;;;;;;23.10;62.40;;;;;;5059925;28;19967;-60
2021/09/29 00:28:09;;;;;;;;;;;23.10;62.50;;;;;;5065513;28;20004;-59
2021/09/29 00:33:26;;;;;;;;;;;23.10;62.40;;;;;;5052715;28;19924;-58
2021/09/29 00:35:52;;;;;;;;;;;23.10;62.40;;;;;;5053655;28;19991;-58
2021/09/29 00:38:19;;;;;;;;;;;23.10;62.40;;;;;;5051468;28;20007;-58
2021/09/29 00:40:48;;;;;;;;;;;23.10;62.30;;;;;;5054063;28;20004;-58
2021/09/29 00:43:15;;;;;;;;;;;23.10;62.30;;;;;;5053436;28;20027;-59
2021/09/29 00:45:42;;;;;;;;;;;23.10;63.00;;;;;;5052713;28;20333;-59
2021/09/29 00:48:09;;;;;;;;;;;23.10;62.30;;;;;;5052317;28;20420;-58
2021/09/29 00:50:36;;;;;;;;;;;23.10;62.30;;;;;;5053445;28;19925;-60
2021/09/29 00:53:04;;;;;;;;;;;23.10;62.30;;;;;;5063068;28;19935;-59
2021/09/29 00:55:32;;;;;;;;;;;23.10;62.30;;;;;;5067706;28;19979;-58
2021/09/29 00:57:58;;;;;;;;;;;23.10;62.30;;;;;;5060283;28;20027;-60
2021/09/29 01:00:25;;;;;;;;;;;23.10;62.20;;;;;;5047499;28;20007;-59
2021/09/29 01:02:52;;;;;;;;;;;23.10;62.20;;;;;;5039687;28;20025;-59
2021/09/29 01:05:20;;;;;;;;;;;23.10;62.20;;;;;;5052209;28;20036;-58
2021/09/29 01:08:02;;;;;;;;;;;23.10;62.20;;;;;;5051973;28;19968;-58
2021/09/29 01:10:31;;;;;;;;;;;23.10;62.20;;;;;;5038109;28;19924;-58
2021/09/29 01:13:14;;;;;;;;;;;23.10;62.20;;;;;;5036469;28;19994;-58
2021/09/29 01:15:54;;;;;;;;;;;23.10;62.20;;;;;;5055163;28;20012;-59
2021/09/29 01:18:23;;;;;;;;;;;23.10;62.20;;;;;;5073165;28;20024;-59
2021/09/29 01:20:56;;;;;;;;;;;23.10;62.10;;;;;;5037226;28;19925;-59
2021/09/29 01:23:23;;;;;;;;;;;23.10;62.10;;;;;;5037823;28;20015;-59
2021/09/29 01:25:59;;;;;;;;;;;23.10;62.10;;;;;;5066535;28;19970;-58
2021/09/29 01:28:46;;;;;;;;;;;23.00;61.90;;;;;;5044390;28;19925;-58
2021/09/29 01:31:13;;;;;;;;;;;23.10;62.10;;;;;;5052852;28;19962;-58
2021/09/29 01:33:41;;;;;;;;;;;23.10;62.10;;;;;;5042067;28;19925;-59
2021/09/29 01:36:09;;;;;;;;;;;23.10;62.00;;;;;;5037522;28;20360;-58
2021/09/29 01:38:38;;;;;;;;;;;23.10;62.00;;;;;;5039719;28;19969;-58
2021/09/29 01:41:06;;;;;;;;;;;23.10;62.00;;;;;;5039834;28;19967;-58
2021/09/29 01:43:33;;;;;;;;;;;23.10;62.00;;;;;;5041540;28;19924;-58
2021/09/29 01:46:00;;;;;;;;;;;23.10;62.00;;;;;;5055356;28;19925;-58
2021/09/29 01:48:27;;;;;;;;;;;23.10;62.00;;;;;;5053390;28;19931;-58
2021/09/29 01:50:57;;;;;;;;;;;23.10;62.00;;;;;;5036875;28;24742;-58
2021/09/29 01:53:24;;;;;;;;;;;23.10;62.00;;;;;;5054133;28;20344;-59
2021/09/29 01:55:51;;;;;;;;;;;23.10;61.90;;;;;;5044738;28;20349;-58
2021/09/29 01:58:18;;;;;;;;;;;23.10;61.90;;;;;;5059536;28;19968;-58
2021/09/29 02:00:45;;;;;;;;;;;23.10;62.60;;;;;;5058112;28;19971;-59
2021/09/29 02:03:18;;;;;;;;;;;23.10;61.90;;;;;;5057972;28;19974;-58
2021/09/29 02:05:48;;;;;;;;;;;23.10;61.90;;;;;;5089946;28;20389;-58
2021/09/29 02:08:15;;;;;;;;;;;23.00;61.70;;;;;;5058101;28;19931;-59
2021/09/29 02:10:42;;;;;;;;;;;23.10;61.90;;;;;;5063339;28;19973;-59
2021/09/29 02:13:09;;;;;;;;;;;23.00;61.70;;;;;;5069617;28;20475;-59
2021/09/29 02:15:36;;;;;;;;;;;23.00;61.80;;;;;;5057697;28;19924;-59
2021/09/29 02:18:03;;;;;;;;;;;23.00;61.80;;;;;;5065818;28;19928;-58
2021/09/29 02:20:29;;;;;;;;;;;23.10;61.90;;;;;;5087193;28;20340;-59
2021/09/29 02:22:56;;;;;;;;;;;23.10;61.90;;;;;;5055951;28;19924;-58
2021/09/29 02:25:24;;;;;;;;;;;23.10;61.90;;;;;;5059004;28;20397;-59
2021/09/29 02:27:51;;;;;;;;;;;23.10;61.90;;;;;;5084404;28;20485;-60
2021/09/29 02:30:18;;;;;;;;;;;23.10;61.90;;;;;;5070008;28;19924;-58
2021/09/29 02:32:45;;;;;;;;;;;23.10;61.90;;;;;;5071474;28;19931;-59
2021/09/29 02:35:12;;;;;;;;;;;23.00;61.80;;;;;;5067188;28;20138;-59
2021/09/29 02:37:39;;;;;;;;;;;23.00;61.70;;;;;;5058839;28;19925;-58
2021/09/29 02:40:07;;;;;;;;;;;23.00;61.70;;;;;;5060173;28;20011;-58
2021/09/29 02:42:39;;;;;;;;;;;23.10;61.90;;;;;;5070014;28;19936;-59
2021/09/29 02:45:06;;;;;;;;;;;23.00;61.70;;;;;;5057354;28;19925;-59
2021/09/29 02:47:33;;;;;;;;;;;23.10;61.90;;;;;;5090307;28;19925;-57
2021/09/29 02:50:00;;;;;;;;;;;23.10;61.90;;;;;;5089864;28;19924;-58
2021/09/29 02:52:27;;;;;;;;;;;23.10;61.90;;;;;;5055673;28;19931;-59
2021/09/29 02:54:54;;;;;;;;;;;23.10;61.90;;;;;;5071431;28;20003;-58
2021/09/29 02:57:21;;;;;;;;;;;23.10;61.90;;;;;;5061892;28;20101;-57
2021/09/29 02:59:48;;;;;;;;;;;23.10;61.90;;;;;;5068097;28;20494;-59
2021/09/29 03:02:15;;;;;;;;;;;23.10;61.90;;;;;;5072270;28;20014;-58
2021/09/29 03:04:44;;;;;;;;;;;23.10;61.90;;;;;;5071680;28;20205;-58
2021/09/29 03:07:11;;;;;;;;;;;23.00;61.70;;;;;;5071354;28;20294;-59
2021/09/29 03:09:38;;;;;;;;;;;23.10;61.80;;;;;;5072129;28;19939;-59
2021/09/29 03:12:05;;;;;;;;;;;23.00;61.70;;;;;;5071250;28;19924;-59
2021/09/29 03:14:32;;;;;;;;;;;23.10;61.80;;;;;;5072228;28;19971;-58
2021/09/29 03:17:03;;;;;;;;;;;23.10;61.80;;;;;;5071797;28;20015;-59
2021/09/29 03:19:31;;;;;;;;;;;23.10;61.80;;;;;;5073016;28;19924;-60
2021/09/29 03:22:00;;;;;;;;;;;23.00;61.70;;;;;;5070765;28;19975;-58
2021/09/29 03:24:27;;;;;;;;;;;23.00;61.60;;;;;;5071790;28;19924;-58
2021/09/29 03:26:54;;;;;;;;;;;23.00;61.60;;;;;;5070897;28;19931;-57
2021/09/29 03:29:21;;;;;;;;;;;23.10;61.80;;;;;;5104338;27;19930;-58
2021/09/29 03:31:48;;;;;;;;;;;23.00;61.50;;;;;;5072702;28;19971;-58
2021/09/29 03:34:15;;;;;;;;;;;23.00;61.50;;;;;;5073229;28;19924;-59
2021/09/29 03:36:42;;;;;;;;;;;23.00;61.50;;;;;;5070924;28;19971;-59
2021/09/29 03:39:09;;;;;;;;;;;23.00;61.50;;;;;;5072924;28;19999;-59
2021/09/29 03:41:36;;;;;;;;;;;23.00;61.50;;;;;;5054844;28;20656;-58
2021/09/29 03:44:03;;;;;;;;;;;23.00;61.50;;;;;;5073613;28;19967;-58
2021/09/29 03:46:30;;;;;;;;;;;23.00;61.50;;;;;;5072646;28;20007;-58
2021/09/29 03:48:57;;;;;;;;;;;23.00;61.50;;;;;;5057481;28;19935;-58
2021/09/29 03:51:24;;;;;;;;;;;23.00;61.40;;;;;;5068814;28;19931;-58
2021/09/29 03:53:51;;;;;;;;;;;23.00;61.50;;;;;;5062697;28;20023;-58
2021/09/29 03:56:18;;;;;;;;;;;23.00;61.40;;;;;;5065283;28;20353;-58
2021/09/29 03:58:45;;;;;;;;;;;23.00;61.40;;;;;;5071862;28;20011;-59
2021/09/29 04:01:12;;;;;;;;;;;23.00;61.40;;;;;;5067717;28;19979;-59
2021/09/29 04:03:40;;;;;;;;;;;23.00;61.40;;;;;;5060202;28;19984;-58
2021/09/29 04:06:07;;;;;;;;;;;23.00;61.30;;;;;;5087422;28;19924;-58
2021/09/29 04:08:34;;;;;;;;;;;23.00;61.30;;;;;;5055466;28;19924;-59
2021/09/29 04:11:01;;;;;;;;;;;23.00;61.30;;;;;;5071507;28;20010;-59
2021/09/29 04:13:28;;;;;;;;;;;23.00;61.30;;;;;;5088830;28;19959;-59
2021/09/29 04:15:55;;;;;;;;;;;23.00;61.30;;;;;;5060284;28;19924;-58
2021/09/29 04:18:22;;;;;;;;;;;23.00;61.30;;;;;;5057358;28;19928;-58
2021/09/29 04:20:49;;;;;;;;;;;23.00;61.20;;;;;;5065900;28;20034;-59
2021/09/29 04:23:16;;;;;;;;;;;23.00;61.20;;;;;;5063698;28;19924;-59
2021/09/29 04:25:43;;;;;;;;;;;23.00;61.20;;;;;;5061581;28;19968;-58
2021/09/29 04:28:10;;;;;;;;;;;23.00;61.20;;;;;;5074864;28;19924;-59
2021/09/29 04:30:37;;;;;;;;;;;23.00;61.20;;;;;;5085317;28;20284;-59
2021/09/29 04:33:04;;;;;;;;;;;23.00;61.20;;;;;;5073064;28;19932;-58
2021/09/29 04:35:31;;;;;;;;;;;23.00;61.20;;;;;;5073048;28;19931;-58
2021/09/29 04:37:58;;;;;;;;;;;23.00;61.10;;;;;;5070464;28;20388;-58
2021/09/29 04:40:25;;;;;;;;;;;23.00;61.10;;;;;;5061920;28;19931;-58
2021/09/29 04:42:52;;;;;;;;;;;23.00;61.10;;;;;;5088332;28;19928;-57
2021/09/29 04:45:19;;;;;;;;;;;23.00;61.10;;;;;;5067570;28;19960;-59
2021/09/29 04:47:46;;;;;;;;;;;23.00;61.10;;;;;;5078411;28;19973;-58
2021/09/29 04:50:13;;;;;;;;;;;23.00;61.10;;;;;;5076931;28;19952;-58
2021/09/29 04:52:40;;;;;;;;;;;23.00;61.00;;;;;;5071269;28;20345;-58
2021/09/29 04:55:07;;;;;;;;;;;23.00;61.10;;;;;;5090098;28;19959;-59
2021/09/29 04:57:34;;;;;;;;;;;23.00;61.10;;;;;;5088760;28;19956;-59
2021/09/29 05:00:01;;;;;;;;;;;23.00;61.00;;;;;;5073455;28;19932;-58
2021/09/29 05:02:29;;;;;;;;;;;23.00;61.00;;;;;;5058555;28;19936;-59
2021/09/29 05:04:56;;;;;;;;;;;23.00;61.00;;;;;;5074926;28;19925;-58
2021/09/29 05:07:24;;;;;;;;;;;23.00;61.00;;;;;;5074696;28;19963;-60
2021/09/29 05:09:51;;;;;;;;;;;23.00;61.00;;;;;;5061157;28;19983;-58
2021/09/29 05:12:26;;;;;;;;;;;23.00;61.00;;;;;;5081816;28;19925;-58
2021/09/29 05:14:54;;;;;;;;;;;23.00;61.00;;;;;;5068050;28;20015;-57
2021/09/29 05:17:21;;;;;;;;;;;23.00;61.00;;;;;;5060424;28;19924;-58
2021/09/29 05:19:48;;;;;;;;;;;23.00;61.00;;;;;;5063822;28;19931;-58
2021/09/29 05:22:15;;;;;;;;;;;23.00;60.90;;;;;;5073029;28;20384;-59
2021/09/29 05:24:42;;;;;;;;;;;23.00;60.90;;;;;;5076394;28;19928;-56
2021/09/29 05:27:09;;;;;;;;;;;23.00;60.90;;;;;;5089481;28;20329;-58
2021/09/29 05:29:38;;;;;;;;;;;23.00;60.90;;;;;;5057156;28;19980;-58
2021/09/29 05:32:05;;;;;;;;;;;23.00;60.90;;;;;;5087910;28;19925;-58
2021/09/29 05:34:32;;;;;;;;;;;23.00;60.90;;;;;;5072823;28;19929;-59
2021/09/29 05:36:59;;;;;;;;;;;23.00;60.90;;;;;;5071410;28;19924;-58
2021/09/29 05:39:26;;;;;;;;;;;23.00;60.90;;;;;;5062768;28;19931;-58
2021/09/29 05:41:53;;;;;;;;;;;23.00;60.90;;;;;;5069114;28;19929;-59
2021/09/29 05:44:20;;;;;;;;;;;23.00;60.90;;;;;;5073586;28;19924;-58
2021/09/29 05:46:48;;;;;;;;;;;23.00;60.90;;;;;;5073768;28;19928;-57
2021/09/29 05:49:15;;;;;;;;;;;23.00;60.90;;;;;;5072825;28;19924;-58
2021/09/29 05:51:45;;;;;;;;;;;23.00;61.00;;;;;;5074783;28;20384;-58
2021/09/29 05:54:12;;;;;;;;;;;23.00;61.00;;;;;;5072356;28;20348;-58
2021/09/29 05:56:39;;;;;;;;;;;23.00;61.00;;;;;;5073313;28;19924;-58
2021/09/29 05:59:07;;;;;;;;;;;23.00;61.00;;;;;;5056566;28;20297;-59
2021/09/29 06:01:35;;;;;;;;;;;23.00;61.00;;;;;;5071542;28;19924;-56
2021/09/29 06:04:02;;;;;;;;;;;23.10;61.10;;;;;;5073448;28;19928;-58
2021/09/29 06:06:29;;;;;;;;;;;23.10;61.10;;;;;;5074774;28;20323;-58
2021/09/29 06:08:56;;;;;;;;;;;23.00;61.00;;;;;;5072270;28;20007;-58
2021/09/29 06:11:23;;;;;;;;;;;23.00;61.00;;;;;;5074376;28;20450;-58
2021/09/29 06:13:50;;;;;;;;;;;23.00;61.00;;;;;;5073418;28;19971;-58
2021/09/29 06:16:17;;;;;;;;;;;23.00;61.00;;;;;;5073108;28;19928;-58
2021/09/29 06:18:47;;;;;;;;;;;23.10;61.10;;;;;;5073426;28;19956;-58
2021/09/29 06:21:16;;;;;;;;;;;23.10;61.10;;;;;;5074445;28;19925;-59
2021/09/29 06:23:43;;;;;;;;;;;23.10;61.10;;;;;;5074681;28;19983;-59
2021/09/29 06:26:10;;;;;;;;;;;23.10;61.10;;;;;;5074171;28;20392;-58
2021/09/29 06:28:39;;;;;;;;;;;23.10;61.10;;;;;;5073138;28;19924;-59
2021/09/29 06:31:07;;;;;;;;;;;23.10;61.10;;;;;;5072761;28;19947;-58
2021/09/29 06:33:34;;;;;;;;;;;23.10;61.10;;;;;;5072532;28;19925;-58
2021/09/29 06:36:02;;;;;;;;;;;23.10;61.10;;;;;;5072550;28;20012;-57
2021/09/29 06:38:29;;;;;;;;;;;23.10;61.10;;;;;;5064321;28;20016;-58
2021/09/29 06:40:56;;;;;;;;;;;23.10;61.10;;;;;;5057469;28;20388;-60
2021/09/29 06:43:23;;;;;;;;;;;23.10;61.10;;;;;;5069399;28;19931;-59
2021/09/29 06:45:50;;;;;;;;;;;23.10;61.10;;;;;;5081718;28;19951;-55
2021/09/29 06:48:17;;;;;;;;;;;23.10;61.10;;;;;;5071555;28;20043;-57
2021/09/29 06:50:44;;;;;;;;;;;23.10;61.20;;;;;;5056229;28;19963;-57
2021/09/29 06:53:15;;;;;;;;;;;23.10;61.10;;;;;;5072767;28;19925;-58
2021/09/29 06:55:42;;;;;;;;;;;23.10;61.20;;;;;;5071584;28;20644;-59
2021/09/29 06:58:08;;;;;;;;;;;23.10;61.10;;;;;;5057806;28;19947;-58
2021/09/29 07:00:35;;;;;;;;;;;23.10;61.10;;;;;;5085612;28;19973;-57
2021/09/29 07:03:03;;;;;;;;;;;23.10;61.10;;;;;;5075955;28;19928;-60
2021/09/29 07:05:30;;;;;;;;;;;23.10;61.10;;;;;;5062514;28;19931;-59
2021/09/29 07:07:59;;;;;;;;;;;23.10;61.20;;;;;;5058043;28;19925;-58
2021/09/29 07:10:27;;;;;;;;;;;23.10;61.10;;;;;;5063885;28;20653;-57
2021/09/29 07:12:57;;;;;;;;;;;23.10;61.20;;;;;;5068620;28;20007;-58
2021/09/29 07:15:25;;;;;;;;;;;23.10;61.20;;;;;;5056486;28;19939;-58
2021/09/29 07:17:57;;;;;;;;;;;23.10;61.20;;;;;;5060763;28;20339;-60
2021/09/29 07:20:25;;;;;;;;;;;23.10;61.20;;;;;;5073763;28;19974;-58
2021/09/29 07:22:52;;;;;;;;;;;23.10;61.20;;;;;;5054964;28;20443;-59
2021/09/29 07:25:19;;;;;;;;;;;23.10;61.20;;;;;;5072633;28;19968;-57
2021/09/29 07:27:46;;;;;;;;;;;23.10;61.20;;;;;;5072104;28;20353;-57
2021/09/29 07:30:13;;;;;;;;;;;23.10;61.20;;;;;;5071958;28;19974;-58
2021/09/29 07:32:40;;;;;;;;;;;23.10;61.30;;;;;;5072211;28;19964;-57
2021/09/29 07:35:07;;;;;;;;;;;23.10;61.30;;;;;;5070915;28;19924;-59
2021/09/29 07:37:34;;;;;;;;;;;23.20;61.40;;;;;;5096873;28;20449;-59
2021/09/29 07:40:05;;;;;;;;;;;23.20;61.40;;;;;;5056471;28;19924;-58
2021/09/29 07:42:32;;;;;;;;;;;23.20;61.40;;;;;;5056508;28;19983;-58
2021/09/29 07:44:59;;;;;;;;;;;23.20;61.40;;;;;;5057781;28;19979;-57
2021/09/29 07:47:26;;;;;;;;;;;23.20;61.40;;;;;;5071645;28;19932;-58
2021/09/29 07:49:53;;;;;;;;;;;23.20;61.40;;;;;;5071858;28;19928;-56
2021/09/29 07:52:20;;;;;;;;;;;23.20;61.40;;;;;;5054963;28;19924;-57
2021/09/29 07:54:47;;;;;;;;;;;23.10;61.30;;;;;;5072857;28;19963;-57
2021/09/29 07:57:14;;;;;;;;;;;23.20;61.40;;;;;;5058122;28;19925;-59
2021/09/29 07:59:41;;;;;;;;;;;23.20;61.40;;;;;;5079710;28;19931;-57
2021/09/29 08:02:08;;;;;;;;;;;23.20;61.40;;;;;;5078310;28;19932;-58
2021/09/29 08:04:35;;;;;;;;;;;23.20;61.40;;;;;;5064730;28;19925;-58
2021/09/29 08:07:02;;;;;;;;;;;23.20;61.40;;;;;;5057430;28;19929;-58
2021/09/29 08:09:29;;;;;;;;;;;23.20;61.30;;;;;;5063016;28;20411;-56
2021/09/29 08:11:56;;;;;;;;;;;23.20;61.30;;;;;;5086435;28;19924;-58
2021/09/29 08:14:23;;;;;;;;;;;23.20;61.30;;;;;;5072943;28;19964;-58
2021/09/29 08:16:50;;;;;;;;;;;23.20;61.40;;;;;;5071042;28;19998;-57
2021/09/29 08:19:17;;;;;;;;;;;23.20;61.30;;;;;;5092249;28;20344;-58
2021/09/29 08:21:46;;;;;;;;;;;23.20;61.30;;;;;;5062089;28;20069;-58
2021/09/29 08:24:17;;;;;;;;;;;23.20;61.40;;;;;;5060070;28;20338;-59
2021/09/29 08:27:07;;;;;;;;;;;23.20;61.30;;;;;;5073002;28;19931;-58
2021/09/29 08:30:18;;;;;;;;;;;23.20;61.40;;;;;;5063714;28;19947;-57
2021/09/29 08:35:27;;;;;;;;;;;23.20;61.40;;;;;;5070137;28;19932;-59
2021/09/29 08:38:07;;;;;;;;;;;23.20;61.40;;;;;;5074820;28;19924;-58
2021/09/29 08:43:16;;;;;;;;;;;23.20;61.40;;;;;;5107108;27;20455;-58
2021/09/29 09:15:53;;;;;;;;;;;23.20;61.30;;;;;;5075830;28;20039;-58
2021/09/29 09:18:21;;;;;;;;;;;23.30;61.40;;;;;;5074641;28;19986;-57
2021/09/29 09:20:54;;;;;;;;;;;23.30;61.30;;;;;;5086419;28;19931;-58
2021/09/29 09:23:31;;;;;;;;;;;23.30;61.20;;;;;;5060504;28;20015;-58
2021/09/29 09:25:58;;;;;;;;;;;23.30;61.10;;;;;;5074493;28;19979;-59
2021/09/29 09:28:28;;;;;;;;;;;23.30;61.10;;;;;;5066546;28;19924;-58
2021/09/29 09:31:06;;;;;;;;;;;23.30;61.00;;;;;;5074153;28;19971;-58
2021/09/29 09:33:33;;;;;;;;;;;23.40;61.00;;;;;;5073958;28;19929;-59
2021/09/29 09:36:00;;;;;;;;;;;23.40;60.90;;;;;;5072763;28;19924;-59
2021/09/29 09:38:34;;;;;;;;;;;23.40;60.90;;;;;;5073651;28;20281;-59
2021/09/29 09:41:01;;;;;;;;;;;23.40;60.90;;;;;;5072787;28;19932;-58
2021/09/29 09:43:30;;;;;;;;;;;23.40;60.90;;;;;;5075496;28;19971;-58
2021/09/29 09:46:00;;;;;;;;;;;23.40;60.90;;;;;;5073079;28;19928;-58
2021/09/29 09:48:29;;;;;;;;;;;23.40;60.90;;;;;;5056871;28;19952;-57
2021/09/29 09:51:02;;;;;;;;;;;23.40;61.00;;;;;;5072846;28;19928;-58
2021/09/29 09:53:29;;;;;;;;;;;23.40;61.00;;;;;;5059042;28;20016;-58
2021/09/29 09:55:56;;;;;;;;;;;23.40;61.00;;;;;;5069049;28;19929;-58
2021/09/29 09:58:24;;;;;;;;;;;23.40;61.00;;;;;;5074568;28;19936;-59
2021/09/29 10:00:58;;;;;;;;;;;23.40;61.00;;;;;;5074766;28;20377;-59
2021/09/29 10:03:26;;;;;;;;;;;23.40;61.00;;;;;;5072538;28;19928;-59
2021/09/29 10:05:53;;;;;;;;;;;23.40;61.00;;;;;;5073102;28;20083;-59
2021/09/29 10:08:26;;;;;;;;;;;23.40;61.00;;;;;;5073297;28;19974;-58
2021/09/29 10:11:10;;;;;;;;;;;23.40;61.00;;;;;;5072485;28;20280;-59
2021/09/29 10:27:58;;;;;;;;;;;23.50;60.80;;;;;;5051766;28;20435;-59
2021/09/29 10:30:28;;;;;;;;;;;23.50;60.80;;;;;;5050622;28;19933;-60
2021/09/29 10:32:59;;;;;;;;;;;23.50;61.50;;;;;;5050645;28;19960;-58
2021/09/29 10:43:03;;;;;;;;;;;23.50;60.60;;;;;;5051944;28;19931;-58
2021/09/29 10:45:46;;;;;;;;;;;23.50;60.50;;;;;;5033441;28;20435;-58
2021/09/29 10:48:34;;;;;;;;;;;23.60;60.50;;;;;;5051925;28;19938;-58
2021/09/29 11:27:51;;;;;;;;;;;23.60;60.50;;;;;;5039783;28;19928;-58
2021/09/29 11:30:28;;;;;;;;;;;23.60;60.50;;;;;;5047512;28;19952;-58
2021/09/29 12:11:27;;;;;;;;;;;23.50;60.10;;;;;;5075789;28;20023;-59
2021/09/29 12:14:02;;;;;;;;;;;23.50;60.00;;;;;;5091625;28;19931;-58
2021/09/29 12:16:33;;;;;;;;;;;23.50;60.10;;;;;;5077397;28;19924;-58
2021/09/29 12:19:02;;;;;;;;;;;23.50;60.00;;;;;;5060591;28;20373;-59
2021/09/29 12:21:45;;;;;;;;;;;23.50;60.00;;;;;;5102819;28;19932;-58
2021/09/29 12:24:14;;;;;;;;;;;23.50;60.00;;;;;;5087515;28;19924;-59
2021/09/29 12:26:44;;;;;;;;;;;23.50;60.00;;;;;;5081794;28;19931;-58
2021/09/29 12:29:17;;;;;;;;;;;23.50;60.00;;;;;;5068693;28;19925;-59
2021/09/29 12:34:30;;;;;;;;;;;23.50;60.00;;;;;;5069637;28;19928;-58
2021/09/29 12:37:06;;;;;;;;;;;23.50;60.00;;;;;;5061510;28;20331;-59
2021/09/29 12:39:33;;;;;;;;;;;23.50;59.90;;;;;;5096598;27;19935;-59
2021/09/29 12:42:03;;;;;;;;;;;23.50;60.00;;;;;;5074593;28;19936;-59
2021/09/29 12:44:30;;;;;;;;;;;23.50;60.00;;;;;;5058600;28;19971;-59
2021/09/29 12:47:09;;;;;;;;;;;23.50;60.00;;;;;;5075336;28;19924;-59
2021/09/29 12:49:36;;;;;;;;;;;23.50;59.90;;;;;;5075928;28;19931;-59
2021/09/29 12:52:12;;;;;;;;;;;23.50;59.90;;;;;;5075251;28;19955;-59
2021/09/29 12:54:47;;;;;;;;;;;23.50;59.80;;;;;;5104700;28;20018;-58
2021/09/29 12:57:14;;;;;;;;;;;23.50;59.80;;;;;;5074596;28;19928;-59
2021/09/29 12:59:41;;;;;;;;;;;23.50;59.80;;;;;;5060855;28;19925;-59
2021/09/29 13:02:08;;;;;;;;;;;23.50;59.70;;;;;;5060924;28;19971;-59
2021/09/29 13:04:35;;;;;;;;;;;23.50;59.70;;;;;;5059085;28;19947;-59
2021/09/29 13:07:02;;;;;;;;;;;23.50;59.60;;;;;;5066471;28;19975;-58
2021/09/29 13:09:29;;;;;;;;;;;23.50;59.60;;;;;;5081167;28;19924;-59
2021/09/29 13:11:56;;;;;;;;;;;23.50;59.50;;;;;;5085406;28;20419;-59
2021/09/29 13:14:23;;;;;;;;;;;23.50;59.50;;;;;;5075628;28;20065;-59
2021/09/29 13:16:50;;;;;;;;;;;23.60;59.50;;;;;;5074385;28;20348;-59
2021/09/29 13:19:24;;;;;;;;;;;23.50;59.40;;;;;;5056842;28;19929;-59
2021/09/29 13:22:00;;;;;;;;;;;23.60;59.40;;;;;;5073812;28;19929;-59
2021/09/29 13:27:29;;;;;;;;;;;23.60;59.40;;;;;;5073416;28;19967;-59
2021/09/29 13:38:31;;;;;;;;;;;23.60;59.30;;;;;;5075482;28;20041;-60
2021/09/29 13:40:57;;;;;;;;;;;23.60;59.40;;;;;;5074518;28;19924;-59
2021/09/29 13:43:25;;;;;;;;;;;23.60;59.30;;;;;;5074721;28;20016;-59
2021/09/29 13:45:52;;;;;;;;;;;23.60;59.30;;;;;;5076076;28;19928;-59
2021/09/29 13:48:20;;;;;;;;;;;23.60;59.30;;;;;;5072636;28;20327;-60
2021/09/29 13:50:47;;;;;;;;;;;23.50;59.20;;;;;;5073884;28;19960;-59
2021/09/29 13:53:14;;;;;;;;;;;23.50;59.30;;;;;;5105834;28;19928;-59
2021/09/29 13:55:44;;;;;;;;;;;23.50;59.30;;;;;;5065555;28;19925;-60
2021/09/29 13:58:42;;;;;;;;;;;23.50;59.30;;;;;;5059425;28;19960;-59
2021/09/29 14:14:06;;;;;;;;;;;23.50;59.20;;;;;;5082275;28;19928;-59
2021/09/29 14:28:35;;;;;;;;;;;23.50;59.10;;;;;;5069543;28;20016;-56
2021/09/29 14:31:08;;;;;;;;;;;23.50;59.00;;;;;;5072993;28;19983;-57
2021/09/29 14:33:38;;;;;;;;;;;23.50;59.00;;;;;;5073101;28;19925;-57
2021/09/29 14:36:05;;;;;;;;;;;23.60;59.20;;;;;;5081154;28;20342;-56
2021/09/29 14:38:32;;;;;;;;;;;23.50;59.10;;;;;;5083372;28;20438;-59
2021/09/29 14:41:01;;;;;;;;;;;23.50;59.10;;;;;;5074092;28;19924;-59
2021/09/29 14:43:28;;;;;;;;;;;23.50;59.10;;;;;;5073338;28;19925;-60
2021/09/29 14:45:55;;;;;;;;;;;23.50;59.10;;;;;;5056169;28;19977;-59
2021/09/29 14:48:22;;;;;;;;;;;23.50;59.10;;;;;;5072576;28;19931;-58
2021/09/29 14:50:50;;;;;;;;;;;23.50;59.10;;;;;;5072875;28;19925;-59
2021/09/29 14:53:17;;;;;;;;;;;23.50;59.10;;;;;;5073738;28;19960;-59
2021/09/29 14:55:44;;;;;;;;;;;23.50;59.10;;;;;;5072180;28;19972;-58
2021/09/29 14:58:11;;;;;;;;;;;23.50;59.10;;;;;;5071913;28;20004;-59
2021/09/29 15:00:38;;;;;;;;;;;23.50;59.10;;;;;;5081475;28;19974;-59
2021/09/29 15:03:07;;;;;;;;;;;23.50;59.10;;;;;;5080533;28;19971;-59
2021/09/29 15:05:35;;;;;;;;;;;23.50;59.10;;;;;;5077532;28;19924;-58
2021/09/29 15:08:02;;;;;;;;;;;23.50;59.10;;;;;;5082402;28;19925;-58
2021/09/29 15:10:29;;;;;;;;;;;23.50;59.10;;;;;;5058328;28;20338;-58
2021/09/29 15:13:01;;;;;;;;;;;23.50;59.20;;;;;;5072067;28;19928;-59
2021/09/29 15:15:32;;;;;;;;;;;23.50;59.20;;;;;;5056576;28;19932;-58
2021/09/29 15:18:22;;;;;;;;;;;23.50;59.20;;;;;;5079378;28;19924;-59
2021/09/29 15:21:12;;;;;;;;;;;23.50;59.20;;;;;;5072014;28;20305;-59
2021/09/29 15:51:07;;;;;;;;;;;23.40;59.20;;;;;;5004767;28;19996;-59
2021/09/29 16:01:34;;;;;;;;;;;23.30;59.30;;;;;;4990273;28;19926;-59
2021/09/29 16:06:50;;;;;;;;;;;23.30;59.30;;;;;;4990216;28;20377;-60
2021/09/29 16:22:43;;;;;;;;;;;23.30;59.40;;;;;;5024990;28;19925;-59
2021/09/29 16:31:04;;;;;;;;;;;23.30;59.50;;;;;;5011825;28;19960;-59
2021/09/29 16:35:58;;;;;;;;;;;23.20;59.40;;;;;;5010246;28;20004;-58
2021/09/29 16:38:25;;;;;;;;;;;23.20;59.50;;;;;;5010603;28;19930;-58
2021/09/29 16:40:53;;;;;;;;;;;23.30;59.60;;;;;;5014266;28;19925;-58
2021/09/29 16:43:20;;;;;;;;;;;23.30;59.60;;;;;;5011803;28;19926;-59
2021/09/29 16:45:48;;;;;;;;;;;23.20;59.50;;;;;;5014164;28;20404;-59
2021/09/29 16:48:17;;;;;;;;;;;23.20;59.50;;;;;;5013084;28;20417;-58
2021/09/29 16:53:17;;;;;;;;;;;23.20;59.50;;;;;;5001859;28;20141;-59
2021/09/29 16:55:46;;;;;;;;;;;23.20;59.50;;;;;;5012392;28;20032;-59
2021/09/29 17:00:56;;;;;;;;;;;23.20;59.60;;;;;;5013128;28;20024;-59
2021/09/29 17:03:23;;;;;;;;;;;23.20;59.60;;;;;;5051181;28;19924;-60
2021/09/29 17:05:51;;;;;;;;;;;23.20;59.60;;;;;;5075140;28;19928;-59
2021/09/29 17:08:18;;;;;;;;;;;23.20;59.60;;;;;;5076213;28;19925;-59
2021/09/29 17:10:45;;;;;;;;;;;23.20;59.90;;;;;;5086976;28;20310;-60
2021/09/29 17:13:14;;;;;;;;;;;23.20;59.60;;;;;;5090267;28;19924;-59
2021/09/29 17:15:41;;;;;;;;;;;23.20;59.60;;;;;;5080604;28;19928;-59
2021/09/29 17:18:08;;;;;;;;;;;23.20;59.60;;;;;;5081433;28;20003;-59
2021/09/29 17:20:35;;;;;;;;;;;23.20;59.60;;;;;;5077906;28;19924;-59
2021/09/29 17:23:03;;;;;;;;;;;23.20;59.60;;;;;;5066760;28;19924;-60
2021/09/29 17:25:34;;;;;;;;;;;23.20;59.60;;;;;;5087542;28;19967;-58
2021/09/29 17:28:02;;;;;;;;;;;23.20;59.60;;;;;;5074210;28;20390;-59
2021/09/29 17:30:34;;;;;;;;;;;23.20;59.60;;;;;;5056918;28;20388;-58
2021/09/29 17:33:25;;;;;;;;;;;23.20;59.60;;;;;;5075233;28;20355;-59
2021/09/29 17:36:06;;;;;;;;;;;23.10;59.50;;;;;;5057847;28;20596;-59
2021/09/29 17:52:35;;;;;;;;;;;23.10;59.60;;;;;;5014451;28;19925;-59
2021/09/29 17:55:08;;;;;;;;;;;23.10;59.60;;;;;;5028114;28;20032;-58
2021/09/29 17:57:35;;;;;;;;;;;23.10;59.60;;;;;;5029319;28;20392;-59
2021/09/29 18:00:04;;;;;;;;;;;23.10;59.60;;;;;;5013223;28;19975;-58
2021/09/29 18:02:52;;;;;;;;;;;23.10;59.60;;;;;;5011752;28;20384;-58
2021/09/29 18:08:25;;;;;;;;;;;23.10;59.60;;;;;;4919881;29;19926;-59
2021/09/29 18:10:52;;;;;;;;;;;23.10;59.60;;;;;;4952233;29;19936;-59
2021/09/29 18:13:21;;;;;;;;;;;23.10;59.60;;;;;;4935280;29;19926;-58
2021/09/29 18:15:50;;;;;;;;;;;23.10;59.60;;;;;;4933716;29;20351;-60
2021/09/29 18:18:19;;;;;;;;;;;23.10;59.60;;;;;;4933800;29;19927;-59
2021/09/29 18:20:46;;;;;;;;;;;23.10;59.60;;;;;;4934855;29;20013;-59
2021/09/29 18:23:14;;;;;;;;;;;23.10;59.60;;;;;;4948988;28;19934;-58
2021/09/29 18:25:41;;;;;;;;;;;23.10;59.60;;;;;;4970935;28;20084;-59
2021/09/29 18:28:09;;;;;;;;;;;23.10;59.60;;;;;;4972955;28;19926;-58
2021/09/29 18:30:39;;;;;;;;;;;23.10;59.70;;;;;;4974347;28;19989;-59
2021/09/29 18:33:22;;;;;;;;;;;23.10;59.70;;;;;;4970934;28;20005;-59
2021/09/29 18:35:54;;;;;;;;;;;23.10;59.70;;;;;;4970690;28;19926;-58
2021/09/29 18:38:29;;;;;;;;;;;23.10;59.70;;;;;;4985887;28;19931;-59
2021/09/29 18:41:18;;;;;;;;;;;23.10;59.70;;;;;;5074984;28;20292;-58
2021/09/29 18:43:50;;;;;;;;;;;23.10;59.80;;;;;;5072504;28;20313;-57